createdAt,value
2022-10-12T00:00:38.601Z,81.20
2022-10-12T00:03:09.252Z,83.78
2022-10-12T00:05:37.115Z,82.98
2022-10-12T00:08:04.904Z,82.58
2022-10-12T00:10:33.065Z,82.84
2022-10-12T00:13:01.174Z,82.69
2022-10-12T00:15:28.954Z,85.77
2022-10-12T00:17:57.045Z,82.67
2022-10-12T00:20:24.894Z,83.48
2022-10-12T00:22:52.688Z,83.92
2022-10-12T00:25:20.993Z,83.25
2022-10-12T00:27:48.772Z,81.40
2022-10-12T00:30:16.775Z,80.15
2022-10-12T00:32:44.834Z,79.76
2022-10-12T00:35:12.604Z,80.49
2022-10-12T00:37:40.476Z,79.32
2022-10-12T00:40:09.282Z,79.04
2022-10-12T00:42:37.103Z,78.64
2022-10-12T00:45:05.375Z,80.75
2022-10-12T00:47:38.886Z,80.06
2022-10-12T00:50:07.487Z,79.02
2022-10-12T00:52:41.322Z,79.19
2022-10-12T00:55:10.953Z,79.94
2022-10-12T00:57:43.245Z,78.50
2022-10-12T01:00:14.145Z,79.78
2022-10-12T01:02:43.654Z,78.73
2022-10-12T01:05:12.035Z,78.77
2022-10-12T01:07:40.068Z,78.96
2022-10-12T01:10:09.003Z,80.84
2022-10-12T01:12:37.155Z,81.76
2022-10-12T01:15:05.955Z,81.76
2022-10-12T01:18:01.425Z,79.96
2022-10-12T01:20:38.324Z,79.19
2022-10-12T01:23:18.946Z,79.60
2022-10-12T01:25:58.573Z,79.34
2022-10-12T01:28:54.578Z,78.63
2022-10-12T01:31:32.839Z,83.69
2022-10-12T01:34:04.103Z,82.25
2022-10-12T01:36:41.376Z,83.15
2022-10-12T01:39:16.675Z,83.36
2022-10-12T01:41:50.863Z,84.55
2022-10-12T01:44:23.473Z,80.27
2022-10-12T01:46:55.699Z,79.30
2022-10-12T01:49:26.893Z,79.31
2022-10-12T01:52:05.394Z,82.81
2022-10-12T01:54:47.564Z,82.53
2022-10-12T01:57:36.787Z,83.01
2022-10-12T02:00:10.713Z,82.42
2022-10-12T02:02:51.034Z,81.68
2022-10-12T02:05:31.133Z,81.07
2022-10-12T02:08:20.025Z,80.56
2022-10-12T02:11:05.473Z,80.70
2022-10-12T02:13:36.915Z,81.70
2022-10-12T02:16:08.533Z,81.64
2022-10-12T02:18:39.714Z,81.14
2022-10-12T02:21:08.855Z,81.80
2022-10-12T02:23:37.306Z,81.63
2022-10-12T02:26:06.084Z,80.43
2022-10-12T02:28:36.476Z,79.37
2022-10-12T02:31:36.265Z,81.95
2022-10-12T02:34:16.453Z,81.92
2022-10-12T02:36:44.254Z,81.71
2022-10-12T02:39:15.266Z,86.03
2022-10-12T02:41:48.424Z,83.26
2022-10-12T02:44:20.253Z,84.03
2022-10-12T02:46:48.854Z,84.85
2022-10-12T02:49:17.900Z,85.68
2022-10-12T02:51:45.914Z,86.21
2022-10-12T02:54:13.833Z,83.69
2022-10-12T02:56:46.085Z,83.25
2022-10-12T02:59:15.131Z,83.32
2022-10-12T03:01:44.022Z,84.92
2022-10-12T03:04:11.815Z,82.02
2022-10-12T03:06:39.756Z,79.76
2022-10-12T03:09:08.088Z,82.30
2022-10-12T03:11:37.856Z,79.90
2022-10-12T03:14:05.624Z,79.18
2022-10-12T03:16:33.663Z,79.33
2022-10-12T03:19:01.435Z,81.23
2022-10-12T03:21:29.518Z,79.85
2022-10-12T03:23:57.801Z,81.65
2022-10-12T03:26:25.896Z,83.42
2022-10-12T03:28:53.641Z,81.65
2022-10-12T03:31:21.814Z,80.39
2022-10-12T03:33:49.674Z,80.18
2022-10-12T03:36:17.571Z,81.96
2022-10-12T03:38:45.654Z,81.27
2022-10-12T03:41:13.414Z,81.33
2022-10-12T03:43:41.227Z,81.76
2022-10-12T03:46:09.325Z,81.69
2022-10-12T03:48:37.248Z,81.86
2022-10-12T03:51:05.017Z,82.16
2022-10-12T03:53:33.304Z,82.42
2022-10-12T03:56:01.169Z,82.72
2022-10-12T03:58:29.014Z,82.72
2022-10-12T04:00:57.144Z,83.49
2022-10-12T04:03:25.225Z,83.34
2022-10-12T04:05:54.895Z,85.71
2022-10-12T04:08:23.751Z,85.96
2022-10-12T04:10:51.944Z,85.79
2022-10-12T04:13:19.794Z,87.19
2022-10-12T04:15:47.534Z,86.16
2022-10-12T04:18:15.684Z,85.76
2022-10-12T04:20:43.448Z,87.92
2022-10-12T04:23:11.236Z,87.35
2022-10-12T04:25:39.875Z,82.91
2022-10-12T04:28:08.084Z,84.16
2022-10-12T04:30:35.894Z,86.49
2022-10-12T04:33:04.385Z,84.68
2022-10-12T04:35:32.414Z,82.60
2022-10-12T04:38:00.173Z,80.08
2022-10-12T04:40:28.336Z,85.23
2022-10-12T04:42:56.391Z,85.88
2022-10-12T04:45:24.134Z,83.25
2022-10-12T04:47:52.205Z,86.08
2022-10-12T04:50:20.075Z,83.51
2022-10-12T04:52:47.825Z,82.61
2022-10-12T04:55:15.925Z,79.93
2022-10-12T04:57:45.184Z,83.50
2022-10-12T05:00:13.384Z,83.83
2022-10-12T05:02:41.544Z,84.14
2022-10-12T05:05:09.784Z,84.76
2022-10-12T05:07:37.805Z,85.41
2022-10-12T05:10:06.548Z,81.40
2022-10-12T05:12:34.324Z,82.46
2022-10-12T05:15:02.482Z,83.69
2022-10-12T05:17:30.823Z,83.78
2022-10-12T05:19:58.928Z,81.91
2022-10-12T05:22:26.724Z,81.14
2022-10-12T05:24:54.874Z,83.19
2022-10-12T05:27:23.053Z,83.30
2022-10-12T05:29:50.732Z,81.85
2022-10-12T05:32:18.755Z,83.87
2022-10-12T05:34:46.617Z,80.75
2022-10-12T05:37:14.446Z,79.57
2022-10-12T05:39:42.552Z,80.52
2022-10-12T05:42:10.305Z,81.46
2022-10-12T05:44:38.083Z,82.66
2022-10-12T05:47:06.238Z,82.87
2022-10-12T05:49:33.932Z,84.70
2022-10-12T05:52:01.778Z,83.17
2022-10-12T05:54:30.870Z,85.21
2022-10-12T05:56:59.476Z,83.07
2022-10-12T05:59:27.403Z,83.60
2022-10-12T06:01:55.522Z,79.77
2022-10-12T06:04:23.725Z,77.67
2022-10-12T06:06:51.534Z,75.92
2022-10-12T06:09:19.404Z,73.75
2022-10-12T06:11:49.127Z,72.52
2022-10-12T06:14:18.695Z,71.55
2022-10-12T06:16:47.652Z,69.14
2022-10-12T06:19:18.145Z,69.77
2022-10-12T06:21:45.914Z,66.72
2022-10-12T06:24:13.663Z,66.30
2022-10-12T06:26:41.694Z,65.94
2022-10-12T06:29:09.555Z,66.58
2022-10-12T06:31:38.591Z,65.53
2022-10-12T06:34:06.895Z,65.27
2022-10-12T06:36:34.921Z,66.01
2022-10-12T06:39:02.673Z,65.21
2022-10-12T06:41:30.673Z,64.97
2022-10-12T06:43:59.008Z,68.03
2022-10-12T06:46:26.865Z,67.92
2022-10-12T06:48:54.995Z,67.97
2022-10-12T06:51:22.812Z,70.41
2022-10-12T06:53:50.592Z,68.95
2022-10-12T06:56:18.715Z,67.55
2022-10-12T06:58:46.914Z,64.05
2022-10-12T07:01:18.898Z,62.94
2022-10-12T07:03:49.637Z,63.89
2022-10-12T07:06:17.824Z,65.25
2022-10-12T07:08:45.809Z,60.74
2022-10-12T07:11:14.167Z,64.52
2022-10-12T07:13:42.420Z,64.71
2022-10-12T07:16:10.264Z,63.74
2022-10-12T07:18:39.284Z,61.39
2022-10-12T07:21:07.241Z,59.96
2022-10-12T07:23:36.160Z,58.47
2022-10-12T07:26:04.363Z,60.16
2022-10-12T07:28:34.992Z,60.51
2022-10-12T07:31:05.031Z,59.09
2022-10-12T07:33:34.683Z,61.76
2022-10-12T07:36:13.997Z,61.25
2022-10-12T07:38:48.191Z,62.03
2022-10-12T07:41:16.695Z,58.69
2022-10-12T07:43:45.165Z,60.01
2022-10-12T07:46:13.269Z,57.46
2022-10-12T07:48:45.896Z,57.94
2022-10-12T07:51:15.708Z,57.28
2022-10-12T07:53:43.729Z,55.32
2022-10-12T07:56:15.728Z,57.36
2022-10-12T07:58:53.693Z,57.57
2022-10-12T08:01:23.757Z,55.45
2022-10-12T08:03:53.808Z,54.31
2022-10-12T08:06:26.879Z,54.63
2022-10-12T08:08:55.543Z,55.19
2022-10-12T08:11:25.343Z,55.23
2022-10-12T08:13:53.766Z,54.33
2022-10-12T08:16:25.838Z,54.31
2022-10-12T08:18:55.527Z,53.82
2022-10-12T08:21:24.300Z,52.79
2022-10-12T08:23:52.497Z,54.24
2022-10-12T08:26:20.400Z,54.17
2022-10-12T08:28:48.756Z,55.19
2022-10-12T08:31:17.903Z,54.81
2022-10-12T08:33:45.785Z,53.58
2022-10-12T08:36:14.093Z,54.96
2022-10-12T08:38:43.833Z,53.47
2022-10-12T08:41:47.263Z,52.28
2022-10-12T08:44:25.614Z,54.76
2022-10-12T08:47:03.185Z,54.92
2022-10-12T08:49:32.194Z,55.51
2022-10-12T08:52:03.442Z,54.52
2022-10-12T08:54:39.445Z,55.03
2022-10-12T08:57:15.804Z,54.18
2022-10-12T08:59:44.584Z,54.84
2022-10-12T09:02:51.585Z,52.82
2022-10-12T09:05:28.355Z,53.06
2022-10-12T09:08:03.425Z,52.39
2022-10-12T09:10:47.351Z,51.09
2022-10-12T09:13:48.593Z,52.95
2022-10-12T09:16:16.734Z,53.96
2022-10-12T09:18:47.344Z,51.37
2022-10-12T09:21:20.976Z,52.39
2022-10-12T09:23:49.422Z,51.88
2022-10-12T09:26:23.886Z,52.09
2022-10-12T09:28:57.747Z,53.45
2022-10-12T09:31:53.673Z,50.52
2022-10-12T09:34:23.835Z,53.75
2022-10-12T09:36:51.942Z,52.94
2022-10-12T09:39:47.122Z,53.23
2022-10-12T09:42:15.284Z,51.14
2022-10-12T09:44:51.013Z,51.03
2022-10-12T09:47:25.165Z,51.94
2022-10-12T09:49:59.871Z,51.42
2022-10-12T09:52:41.970Z,50.82
2022-10-12T09:55:13.353Z,50.80
2022-10-12T09:57:44.236Z,50.50
2022-10-12T10:00:31.452Z,50.36
2022-10-12T10:03:01.075Z,48.84
2022-10-12T10:05:33.154Z,49.44
2022-10-12T10:08:20.365Z,49.49
2022-10-12T10:10:53.615Z,48.04
2022-10-12T10:13:24.064Z,47.28
2022-10-12T10:16:03.802Z,50.12
2022-10-12T10:18:35.903Z,47.80
2022-10-12T10:21:07.032Z,47.61
2022-10-12T10:23:51.556Z,47.01
2022-10-12T10:26:21.785Z,47.41
2022-10-12T10:28:56.297Z,45.31
2022-10-12T10:31:29.174Z,47.42
2022-10-12T10:34:15.745Z,47.78
2022-10-12T10:36:49.274Z,47.01
2022-10-12T10:39:19.673Z,44.98
2022-10-12T10:41:47.815Z,45.54
2022-10-12T10:44:30.989Z,45.75
2022-10-12T10:47:02.727Z,45.87
2022-10-12T10:49:56.044Z,47.41
2022-10-12T10:52:33.243Z,46.97
2022-10-12T10:55:10.409Z,46.48
2022-10-12T10:57:42.955Z,46.09
2022-10-12T11:00:37.791Z,46.57
2022-10-12T11:03:13.664Z,47.21
2022-10-12T11:05:45.952Z,47.19
2022-10-12T11:08:26.762Z,50.15
2022-10-12T11:10:57.913Z,48.40
2022-10-12T11:13:31.596Z,48.63
2022-10-12T11:16:09.524Z,47.67
2022-10-12T11:18:46.023Z,49.33
2022-10-12T11:21:16.313Z,49.44
2022-10-12T11:24:11.112Z,47.92
2022-10-12T11:26:45.943Z,48.24
2022-10-12T11:29:15.423Z,46.35
2022-10-12T11:31:49.301Z,46.62
2022-10-12T11:34:19.422Z,45.17
2022-10-12T11:37:17.727Z,45.59
2022-10-12T11:39:45.068Z,46.75
2022-10-12T11:42:21.867Z,47.57
2022-10-12T11:44:51.795Z,47.29
2022-10-12T11:47:31.298Z,46.25
2022-10-12T11:50:05.923Z,45.21
2022-10-12T11:52:46.407Z,46.41
2022-10-12T11:55:32.845Z,44.97
2022-10-12T11:58:13.271Z,44.24
2022-10-12T12:00:56.335Z,45.38
2022-10-12T12:03:33.633Z,43.80
2022-10-12T12:06:30.792Z,44.86
2022-10-12T12:09:26.678Z,42.29
2022-10-12T12:12:16.741Z,44.58
2022-10-12T12:14:53.976Z,44.08
2022-10-12T12:17:28.005Z,41.95
2022-10-12T12:20:25.622Z,42.83
2022-10-12T12:22:55.503Z,44.20
2022-10-12T12:25:30.504Z,43.08
2022-10-12T12:28:20.782Z,44.60
2022-10-12T12:31:00.985Z,46.92
2022-10-12T12:33:35.757Z,46.33
2022-10-12T12:36:06.980Z,45.17
2022-10-12T12:38:53.114Z,44.31
2022-10-12T12:41:21.854Z,44.30
2022-10-12T12:43:58.637Z,44.85
2022-10-12T12:46:52.705Z,47.22
2022-10-12T12:49:44.217Z,47.99
2022-10-12T12:52:42.319Z,45.31
2022-10-12T12:55:16.593Z,47.31
2022-10-12T12:58:05.706Z,47.73
2022-10-12T13:00:39.058Z,47.12
2022-10-12T13:03:25.837Z,46.25
2022-10-12T13:06:05.586Z,47.82
2022-10-12T13:08:45.944Z,45.37
2022-10-12T13:11:43.655Z,45.19
2022-10-12T13:14:42.604Z,45.84
2022-10-12T13:17:35.566Z,47.74
2022-10-12T13:20:17.675Z,46.37
2022-10-12T13:22:47.848Z,45.78
2022-10-12T13:25:28.284Z,45.18
2022-10-12T13:27:57.558Z,45.33
2022-10-12T13:30:41.290Z,47.27
2022-10-12T13:33:10.190Z,48.09
2022-10-12T13:36:20.573Z,48.01
2022-10-12T13:38:48.446Z,48.35
2022-10-12T13:41:18.181Z,45.59
2022-10-12T13:43:50.437Z,48.51
2022-10-12T13:46:41.536Z,48.50
2022-10-12T13:49:27.724Z,47.20
2022-10-12T13:51:57.348Z,44.91
2022-10-12T13:54:32.401Z,48.11
2022-10-12T13:57:24.233Z,46.46
2022-10-12T14:00:01.028Z,46.32
2022-10-12T14:02:32.144Z,48.01
2022-10-12T14:05:02.809Z,48.02
2022-10-12T14:07:39.515Z,45.95
2022-10-12T14:10:20.076Z,45.94
2022-10-12T14:12:50.303Z,45.99
2022-10-12T14:15:19.697Z,46.13
2022-10-12T14:17:50.956Z,46.05
2022-10-12T14:20:35.093Z,46.36
2022-10-12T14:23:05.308Z,46.63
2022-10-12T14:25:33.753Z,47.57
2022-10-12T14:28:04.831Z,46.05
2022-10-12T14:30:39.700Z,49.65
2022-10-12T14:33:21.373Z,51.79
2022-10-12T14:35:51.935Z,51.98
2022-10-12T14:38:46.986Z,52.76
2022-10-12T14:41:36.823Z,51.16
2022-10-12T14:44:14.012Z,53.71
2022-10-12T14:46:52.395Z,53.80
2022-10-12T14:49:35.405Z,53.43
2022-10-12T14:52:03.416Z,52.68
2022-10-12T14:54:31.887Z,54.80
2022-10-12T14:57:13.779Z,56.24
2022-10-12T14:59:42.640Z,55.95
2022-10-12T15:02:22.890Z,54.45
2022-10-12T15:04:54.936Z,54.53
2022-10-12T15:07:32.658Z,57.24
2022-10-12T15:10:01.696Z,56.26
2022-10-12T15:12:33.036Z,56.67
2022-10-12T15:15:15.208Z,56.29
2022-10-12T15:17:43.196Z,57.56
2022-10-12T15:20:12.227Z,58.98
2022-10-12T15:22:40.395Z,59.48
2022-10-12T15:25:24.514Z,61.83
2022-10-12T15:27:52.683Z,64.73
2022-10-12T15:30:21.008Z,63.64
2022-10-12T15:32:48.997Z,62.50
2022-10-12T15:35:25.328Z,62.55
2022-10-12T15:37:56.448Z,63.13
2022-10-12T15:40:25.863Z,63.80
2022-10-12T15:42:54.314Z,64.22
2022-10-12T15:45:36.904Z,62.77
2022-10-12T15:48:06.566Z,62.73
2022-10-12T15:50:41.594Z,62.94
2022-10-12T15:53:14.764Z,64.16
2022-10-12T15:55:42.805Z,65.15
2022-10-12T15:58:10.985Z,65.66
2022-10-12T16:00:39.091Z,66.26
2022-10-12T16:03:07.316Z,66.18
2022-10-12T16:05:37.153Z,67.28
2022-10-12T16:08:05.825Z,68.35
2022-10-12T16:10:39.036Z,68.43
2022-10-12T16:13:08.616Z,67.76
2022-10-12T16:15:36.916Z,70.72
2022-10-12T16:18:05.507Z,71.85
2022-10-12T16:20:36.888Z,70.48
2022-10-12T16:23:11.813Z,67.98
2022-10-12T16:25:39.598Z,69.17
2022-10-12T16:28:07.774Z,70.93
2022-10-12T16:30:36.433Z,74.38
2022-10-12T16:33:04.257Z,72.22
2022-10-12T16:35:32.438Z,70.64
2022-10-12T16:38:00.495Z,69.20
2022-10-12T16:40:28.386Z,68.69
2022-10-12T16:42:59.075Z,69.42
2022-10-12T16:45:27.047Z,69.79
2022-10-12T16:47:54.886Z,70.05
2022-10-12T16:50:24.261Z,70.68
2022-10-12T16:52:52.868Z,70.00
2022-10-12T16:55:20.866Z,71.27
2022-10-12T16:57:49.322Z,74.06
2022-10-12T17:00:19.454Z,75.43
2022-10-12T17:02:48.045Z,75.48
2022-10-12T17:05:16.267Z,74.11
2022-10-12T17:07:44.657Z,72.94
2022-10-12T17:10:12.735Z,71.89
2022-10-12T17:12:42.858Z,72.27
2022-10-12T17:15:10.896Z,70.64
2022-10-12T17:17:38.937Z,71.09
2022-10-12T17:20:07.530Z,71.14
2022-10-12T17:22:35.294Z,72.58
2022-10-12T17:25:03.687Z,74.62
2022-10-12T17:27:32.563Z,72.34
2022-10-12T17:30:00.756Z,72.26
2022-10-12T17:32:28.645Z,72.60
2022-10-12T17:34:57.083Z,73.02
2022-10-12T17:37:25.243Z,74.51
2022-10-12T17:39:53.495Z,75.55
2022-10-12T17:42:23.575Z,74.59
2022-10-12T17:44:51.591Z,72.87
2022-10-12T17:47:20.675Z,72.88
2022-10-12T17:49:48.944Z,74.73
2022-10-12T17:52:17.092Z,73.55
2022-10-12T17:54:45.465Z,73.19
2022-10-12T17:57:13.885Z,73.98
2022-10-12T17:59:41.989Z,74.11
2022-10-12T18:02:10.296Z,77.00
2022-10-12T18:04:38.511Z,77.31
2022-10-12T18:07:06.454Z,75.31
2022-10-12T18:09:34.536Z,78.08
2022-10-12T18:12:02.728Z,76.00
2022-10-12T18:14:30.669Z,81.00
2022-10-12T18:16:59.097Z,78.52
2022-10-12T18:19:27.377Z,76.89
2022-10-12T18:21:55.665Z,76.45
2022-10-12T18:24:23.651Z,75.53
2022-10-12T18:26:53.649Z,77.49
2022-10-12T18:29:22.197Z,78.85
2022-10-12T18:31:50.161Z,79.09
2022-10-12T18:34:18.324Z,77.35
2022-10-12T18:36:46.167Z,77.41
2022-10-12T18:39:14.553Z,77.36
2022-10-12T18:41:42.925Z,76.11
2022-10-12T18:44:11.427Z,77.08
2022-10-12T18:46:39.345Z,79.03
2022-10-12T18:49:10.488Z,77.32
2022-10-12T18:51:40.296Z,78.08
2022-10-12T18:54:11.726Z,77.99
2022-10-12T18:56:40.676Z,78.10
2022-10-12T18:59:11.605Z,77.20
2022-10-12T19:01:39.981Z,76.57
2022-10-12T19:04:08.466Z,76.76
2022-10-12T19:06:42.227Z,77.28
2022-10-12T19:09:14.066Z,77.54
2022-10-12T19:11:42.075Z,76.80
2022-10-12T19:14:16.127Z,79.49
2022-10-12T19:16:44.667Z,79.22
2022-10-12T19:19:20.484Z,78.17
2022-10-12T19:21:52.116Z,77.93
2022-10-12T19:24:21.595Z,77.50
2022-10-12T19:26:49.469Z,78.85
2022-10-12T19:29:17.525Z,80.70
2022-10-12T19:31:48.137Z,83.37
2022-10-12T19:34:18.368Z,79.18
2022-10-12T19:36:47.118Z,77.54
2022-10-12T19:39:18.265Z,77.80
2022-10-12T19:41:47.086Z,77.88
2022-10-12T19:44:15.576Z,79.47
2022-10-12T19:46:47.380Z,79.46
2022-10-12T19:49:16.645Z,80.24
2022-10-12T19:51:44.950Z,79.32
2022-10-12T19:54:14.287Z,79.05
2022-10-12T19:56:42.545Z,80.29
2022-10-12T19:59:10.432Z,82.97
2022-10-12T20:01:39.144Z,83.27
2022-10-12T20:04:10.240Z,83.48
2022-10-12T20:06:38.415Z,79.33
2022-10-12T20:09:07.640Z,79.81
2022-10-12T20:11:38.540Z,81.12
2022-10-12T20:14:06.573Z,80.67
2022-10-12T20:16:35.335Z,80.91
2022-10-12T20:19:05.699Z,79.55
2022-10-12T20:21:33.566Z,80.99
2022-10-12T20:24:01.356Z,79.82
2022-10-12T20:26:29.496Z,78.12
2022-10-12T20:28:57.328Z,77.76
2022-10-12T20:31:27.572Z,77.96
2022-10-12T20:33:56.791Z,79.08
2022-10-12T20:36:29.687Z,84.54
2022-10-12T20:38:59.186Z,83.84
2022-10-12T20:41:28.030Z,79.92
2022-10-12T20:44:00.554Z,78.57
2022-10-12T20:46:29.595Z,78.91
2022-10-12T20:48:59.532Z,78.18
2022-10-12T20:51:44.755Z,78.39
2022-10-12T20:54:15.957Z,78.94
2022-10-12T20:56:44.366Z,79.74
2022-10-12T20:59:12.560Z,79.46
2022-10-12T21:01:40.295Z,79.47
2022-10-12T21:04:10.334Z,79.06
2022-10-12T21:06:38.693Z,83.13
2022-10-12T21:09:06.595Z,80.03
2022-10-12T21:11:34.773Z,79.68
2022-10-12T21:14:02.844Z,79.00
2022-10-12T21:16:31.174Z,79.08
2022-10-12T21:18:59.237Z,79.80
2022-10-12T21:21:28.964Z,80.78
2022-10-12T21:23:58.763Z,80.45
2022-10-12T21:26:28.295Z,79.59
2022-10-12T21:28:56.496Z,79.92
2022-10-12T21:31:27.125Z,79.65
2022-10-12T21:34:01.616Z,79.52
2022-10-12T21:36:30.905Z,80.24
2022-10-12T21:38:59.085Z,79.86
2022-10-12T21:41:28.865Z,79.35
2022-10-12T21:43:57.502Z,79.23
2022-10-12T21:46:30.633Z,79.53
2022-10-12T21:48:59.773Z,80.72
2022-10-12T21:51:30.136Z,83.71
2022-10-12T21:53:58.505Z,81.57
2022-10-12T21:56:28.326Z,82.65
2022-10-12T21:58:58.315Z,80.19
2022-10-12T22:01:44.353Z,80.96
2022-10-12T22:04:14.833Z,83.86
2022-10-12T22:06:43.606Z,80.95
2022-10-12T22:09:17.075Z,79.21
2022-10-12T22:11:46.796Z,80.65
2022-10-12T22:14:17.997Z,80.28
2022-10-12T22:16:46.502Z,79.34
2022-10-12T22:19:19.024Z,80.53
2022-10-12T22:21:51.242Z,84.83
2022-10-12T22:24:20.746Z,83.62
2022-10-12T22:26:49.237Z,81.15
2022-10-12T22:29:16.943Z,83.03
2022-10-12T22:31:45.909Z,79.73
2022-10-12T22:34:16.017Z,79.58
2022-10-12T22:36:44.337Z,81.99
2022-10-12T22:39:13.324Z,80.37
2022-10-12T22:41:44.795Z,80.66
2022-10-12T22:44:12.645Z,79.47
2022-10-12T22:46:40.455Z,78.91
2022-10-12T22:49:08.565Z,81.31
2022-10-12T22:51:39.267Z,81.26
2022-10-12T22:54:07.478Z,80.05
2022-10-12T22:56:37.854Z,79.07
2022-10-12T22:59:08.673Z,79.87
2022-10-12T23:01:37.315Z,79.62
2022-10-12T23:04:05.313Z,81.14
2022-10-12T23:06:33.264Z,80.45
2022-10-12T23:09:01.705Z,79.10
2022-10-12T23:11:29.843Z,79.82
2022-10-12T23:13:58.165Z,79.49
2022-10-12T23:16:31.423Z,79.39
2022-10-12T23:19:01.833Z,80.04
2022-10-12T23:21:30.727Z,81.88
2022-10-12T23:24:00.220Z,82.40
2022-10-12T23:26:29.330Z,82.16
2022-10-12T23:28:57.937Z,83.55
2022-10-12T23:31:27.996Z,82.40
2022-10-12T23:33:58.127Z,82.38
2022-10-12T23:36:26.685Z,81.35
2022-10-12T23:38:54.483Z,83.43
2022-10-12T23:41:22.304Z,85.82
2022-10-12T23:43:50.353Z,81.66
2022-10-12T23:46:18.085Z,80.75
2022-10-12T23:48:45.895Z,81.58
2022-10-12T23:51:14.052Z,80.74
2022-10-12T23:53:42.703Z,80.33
2022-10-12T23:56:10.823Z,81.07
2022-10-12T23:58:38.958Z,80.00
